sensor_id;sensor_type;location;lat;lon;timestamp;P1;durP1;ratioP1;P2;durP2;ratioP2
1837;SDS011;918;50.796;6.772;2022-09-30T00:02:07;5.77;;;5.37;;
1837;SDS011;918;50.796;6.772;2022-09-30T00:04:33;5.60;;;5.20;;
1837;SDS011;918;50.796;6.772;2022-09-30T00:06:59;5.57;;;5.13;;
1837;SDS011;918;50.796;6.772;2022-09-30T00:09:24;8.80;;;5.53;;
1837;SDS011;918;50.796;6.772;2022-09-30T00:11:49;6.50;;;6.03;;
1837;SDS011;918;50.796;6.772;2022-09-30T00:14:16;6.50;;;5.90;;
1837;SDS011;918;50.796;6.772;2022-09-30T00:16:42;7.60;;;5.23;;
1837;SDS011;918;50.796;6.772;2022-09-30T00:19:08;6.37;;;5.60;;
1837;SDS011;918;50.796;6.772;2022-09-30T00:21:33;6.07;;;5.53;;
1837;SDS011;918;50.796;6.772;2022-09-30T00:23:59;5.57;;;5.17;;
1837;SDS011;918;50.796;6.772;2022-09-30T00:26:25;5.73;;;5.13;;
1837;SDS011;918;50.796;6.772;2022-09-30T00:28:51;5.70;;;5.30;;
1837;SDS011;918;50.796;6.772;2022-09-30T00:31:19;5.63;;;5.23;;
1837;SDS011;918;50.796;6.772;2022-09-30T00:33:45;5.80;;;5.40;;
1837;SDS011;918;50.796;6.772;2022-09-30T00:36:31;6.87;;;6.37;;
1837;SDS011;918;50.796;6.772;2022-09-30T00:38:57;5.90;;;5.50;;
1837;SDS011;918;50.796;6.772;2022-09-30T00:41:22;5.87;;;5.40;;
1837;SDS011;918;50.796;6.772;2022-09-30T00:43:48;6.00;;;5.50;;
1837;SDS011;918;50.796;6.772;2022-09-30T00:49:17;5.90;;;5.50;;
1837;SDS011;918;50.796;6.772;2022-09-30T00:51:45;5.33;;;5.03;;
1837;SDS011;918;50.796;6.772;2022-09-30T00:54:13;5.57;;;5.07;;
1837;SDS011;918;50.796;6.772;2022-09-30T00:56:42;5.33;;;4.93;;
1837;SDS011;918;50.796;6.772;2022-09-30T01:02:03;5.90;;;5.50;;
1837;SDS011;918;50.796;6.772;2022-09-30T01:04:30;5.10;;;4.80;;
1837;SDS011;918;50.796;6.772;2022-09-30T01:06:58;5.70;;;5.20;;
1837;SDS011;918;50.796;6.772;2022-09-30T01:09:24;8.10;;;5.70;;
1837;SDS011;918;50.796;6.772;2022-09-30T01:11:50;8.93;;;5.23;;
1837;SDS011;918;50.796;6.772;2022-09-30T01:14:19;5.77;;;5.37;;
1837;SDS011;918;50.796;6.772;2022-09-30T01:16:49;5.40;;;5.00;;
1837;SDS011;918;50.796;6.772;2022-09-30T01:22:29;5.57;;;4.70;;
1837;SDS011;918;50.796;6.772;2022-09-30T01:28:12;5.07;;;4.77;;
1837;SDS011;918;50.796;6.772;2022-09-30T01:30:59;6.87;;;6.17;;
1837;SDS011;918;50.796;6.772;2022-09-30T01:33:41;4.57;;;4.10;;
1837;SDS011;918;50.796;6.772;2022-09-30T01:36:34;5.60;;;5.10;;
1837;SDS011;918;50.796;6.772;2022-09-30T01:39:13;5.10;;;4.70;;
1837;SDS011;918;50.796;6.772;2022-09-30T01:46:53;5.53;;;5.00;;
1837;SDS011;918;50.796;6.772;2022-09-30T01:49:29;5.70;;;5.20;;
1837;SDS011;918;50.796;6.772;2022-09-30T01:52:06;5.50;;;5.00;;
1837;SDS011;918;50.796;6.772;2022-09-30T01:54:40;5.27;;;4.87;;
1837;SDS011;918;50.796;6.772;2022-09-30T01:57:19;5.07;;;4.67;;
1837;SDS011;918;50.796;6.772;2022-09-30T01:59:58;5.83;;;5.33;;
1837;SDS011;918;50.796;6.772;2022-09-30T02:02:27;4.93;;;4.43;;
1837;SDS011;918;50.796;6.772;2022-09-30T02:05:04;5.60;;;5.20;;
1837;SDS011;918;50.796;6.772;2022-09-30T02:08:18;5.30;;;4.90;;
1837;SDS011;918;50.796;6.772;2022-09-30T02:10:28;5.80;;;5.00;;
1837;SDS011;918;50.796;6.772;2022-09-30T02:12:58;5.73;;;5.33;;
1837;SDS011;918;50.796;6.772;2022-09-30T02:15:30;5.60;;;5.10;;
1837;SDS011;918;50.796;6.772;2022-09-30T02:18:02;5.23;;;4.80;;
1837;SDS011;918;50.796;6.772;2022-09-30T02:20:31;4.70;;;4.40;;
1837;SDS011;918;50.796;6.772;2022-09-30T02:28:53;5.40;;;4.90;;
1837;SDS011;918;50.796;6.772;2022-09-30T02:31:23;5.47;;;5.07;;
1837;SDS011;918;50.796;6.772;2022-09-30T02:33:50;5.87;;;5.37;;
1837;SDS011;918;50.796;6.772;2022-09-30T02:36:20;4.93;;;4.60;;
1837;SDS011;918;50.796;6.772;2022-09-30T02:38:50;5.10;;;4.60;;
1837;SDS011;918;50.796;6.772;2022-09-30T02:41:24;5.07;;;4.70;;
1837;SDS011;918;50.796;6.772;2022-09-30T02:43:51;4.97;;;4.57;;
1837;SDS011;918;50.796;6.772;2022-09-30T02:46:33;5.60;;;5.10;;
1837;SDS011;918;50.796;6.772;2022-09-30T02:49:07;4.60;;;4.30;;
1837;SDS011;918;50.796;6.772;2022-09-30T02:54:13;5.40;;;5.00;;
1837;SDS011;918;50.796;6.772;2022-09-30T02:57:18;4.70;;;4.40;;
1837;SDS011;918;50.796;6.772;2022-09-30T02:59:44;4.67;;;4.37;;
1837;SDS011;918;50.796;6.772;2022-09-30T03:02:11;5.40;;;4.90;;
1837;SDS011;918;50.796;6.772;2022-09-30T03:04:37;4.97;;;4.57;;
1837;SDS011;918;50.796;6.772;2022-09-30T03:07:05;4.80;;;4.40;;
1837;SDS011;918;50.796;6.772;2022-09-30T03:09:33;5.07;;;4.67;;
1837;SDS011;918;50.796;6.772;2022-09-30T03:12:08;5.43;;;4.93;;
1837;SDS011;918;50.796;6.772;2022-09-30T03:14:39;4.67;;;4.37;;
1837;SDS011;918;50.796;6.772;2022-09-30T03:17:14;4.97;;;4.53;;
1837;SDS011;918;50.796;6.772;2022-09-30T03:26:02;5.03;;;4.63;;
1837;SDS011;918;50.796;6.772;2022-09-30T03:28:33;4.97;;;4.67;;
1837;SDS011;918;50.796;6.772;2022-09-30T03:31:03;4.70;;;4.40;;
1837;SDS011;918;50.796;6.772;2022-09-30T03:36:05;4.60;;;4.30;;
1837;SDS011;918;50.796;6.772;2022-09-30T03:41:34;5.20;;;4.80;;
1837;SDS011;918;50.796;6.772;2022-09-30T03:44:06;5.77;;;5.17;;
1837;SDS011;918;50.796;6.772;2022-09-30T03:46:40;5.07;;;4.57;;
1837;SDS011;918;50.796;6.772;2022-09-30T03:49:32;4.60;;;4.30;;
1837;SDS011;918;50.796;6.772;2022-09-30T03:51:58;5.70;;;4.23;;
1837;SDS011;918;50.796;6.772;2022-09-30T03:54:24;4.60;;;4.20;;
1837;SDS011;918;50.796;6.772;2022-09-30T03:56:50;4.97;;;4.53;;
1837;SDS011;918;50.796;6.772;2022-09-30T03:59:21;4.60;;;4.30;;
1837;SDS011;918;50.796;6.772;2022-09-30T04:01:51;6.20;;;4.17;;
1837;SDS011;918;50.796;6.772;2022-09-30T04:04:17;4.70;;;4.30;;
1837;SDS011;918;50.796;6.772;2022-09-30T04:06:42;5.10;;;4.70;;
1837;SDS011;918;50.796;6.772;2022-09-30T04:09:08;4.90;;;4.50;;
1837;SDS011;918;50.796;6.772;2022-09-30T04:11:33;4.90;;;4.40;;
1837;SDS011;918;50.796;6.772;2022-09-30T04:13:58;4.43;;;4.07;;
1837;SDS011;918;50.796;6.772;2022-09-30T04:16:25;4.20;;;3.90;;
1837;SDS011;918;50.796;6.772;2022-09-30T04:18:52;5.07;;;4.77;;
1837;SDS011;918;50.796;6.772;2022-09-30T04:21:17;5.43;;;4.60;;
1837;SDS011;918;50.796;6.772;2022-09-30T04:23:42;5.00;;;4.50;;
1837;SDS011;918;50.796;6.772;2022-09-30T04:26:11;4.57;;;4.17;;
1837;SDS011;918;50.796;6.772;2022-09-30T04:28:37;4.50;;;4.13;;
1837;SDS011;918;50.796;6.772;2022-09-30T04:31:03;7.17;;;4.63;;
1837;SDS011;918;50.796;6.772;2022-09-30T04:33:29;4.40;;;4.10;;
1837;SDS011;918;50.796;6.772;2022-09-30T04:35:55;4.17;;;3.77;;
1837;SDS011;918;50.796;6.772;2022-09-30T04:38:21;4.60;;;4.07;;
1837;SDS011;918;50.796;6.772;2022-09-30T04:40:48;4.47;;;4.10;;
1837;SDS011;918;50.796;6.772;2022-09-30T04:43:14;3.67;;;3.37;;
1837;SDS011;918;50.796;6.772;2022-09-30T04:45:42;3.80;;;3.50;;
1837;SDS011;918;50.796;6.772;2022-09-30T04:48:08;4.03;;;3.73;;
1837;SDS011;918;50.796;6.772;2022-09-30T04:50:34;4.97;;;3.40;;
1837;SDS011;918;50.796;6.772;2022-09-30T04:52:59;3.30;;;3.00;;
1837;SDS011;918;50.796;6.772;2022-09-30T04:55:24;3.70;;;3.40;;
1837;SDS011;918;50.796;6.772;2022-09-30T04:57:50;8.07;;;4.10;;
1837;SDS011;918;50.796;6.772;2022-09-30T05:00:15;3.63;;;3.33;;
1837;SDS011;918;50.796;6.772;2022-09-30T05:02:42;3.63;;;3.33;;
1837;SDS011;918;50.796;6.772;2022-09-30T05:05:08;3.93;;;3.63;;
1837;SDS011;918;50.796;6.772;2022-09-30T05:07:33;4.37;;;3.97;;
1837;SDS011;918;50.796;6.772;2022-09-30T05:09:58;4.20;;;3.90;;
1837;SDS011;918;50.796;6.772;2022-09-30T05:12:23;5.57;;;4.07;;
1837;SDS011;918;50.796;6.772;2022-09-30T05:14:50;3.90;;;3.50;;
1837;SDS011;918;50.796;6.772;2022-09-30T05:17:15;4.13;;;3.53;;
1837;SDS011;918;50.796;6.772;2022-09-30T05:19:40;4.43;;;4.03;;
1837;SDS011;918;50.796;6.772;2022-09-30T05:22:05;4.17;;;3.87;;
1837;SDS011;918;50.796;6.772;2022-09-30T05:24:30;4.70;;;4.10;;
1837;SDS011;918;50.796;6.772;2022-09-30T05:26:56;7.20;;;4.67;;
1837;SDS011;918;50.796;6.772;2022-09-30T05:29:21;3.80;;;3.50;;
1837;SDS011;918;50.796;6.772;2022-09-30T05:31:46;5.47;;;4.10;;
1837;SDS011;918;50.796;6.772;2022-09-30T05:34:11;6.07;;;4.40;;
1837;SDS011;918;50.796;6.772;2022-09-30T05:36:40;5.20;;;4.40;;
1837;SDS011;918;50.796;6.772;2022-09-30T05:39:05;8.10;;;5.37;;
1837;SDS011;918;50.796;6.772;2022-09-30T05:41:31;5.23;;;4.73;;
1837;SDS011;918;50.796;6.772;2022-09-30T05:43:56;5.20;;;4.70;;
1837;SDS011;918;50.796;6.772;2022-09-30T05:46:23;5.90;;;5.40;;
1837;SDS011;918;50.796;6.772;2022-09-30T05:48:48;6.67;;;5.33;;
1837;SDS011;918;50.796;6.772;2022-09-30T05:51:17;7.10;;;4.73;;
1837;SDS011;918;50.796;6.772;2022-09-30T05:53:42;5.10;;;4.43;;
1837;SDS011;918;50.796;6.772;2022-09-30T05:56:08;6.93;;;4.30;;
1837;SDS011;918;50.796;6.772;2022-09-30T05:58:34;4.33;;;4.03;;
1837;SDS011;918;50.796;6.772;2022-09-30T06:01:04;4.50;;;4.20;;
1837;SDS011;918;50.796;6.772;2022-09-30T06:03:32;4.73;;;3.80;;
1837;SDS011;918;50.796;6.772;2022-09-30T06:05:58;5.10;;;4.57;;
1837;SDS011;918;50.796;6.772;2022-09-30T06:08:23;3.60;;;3.30;;
1837;SDS011;918;50.796;6.772;2022-09-30T06:10:48;4.17;;;3.87;;
1837;SDS011;918;50.796;6.772;2022-09-30T06:13:14;4.40;;;3.53;;
1837;SDS011;918;50.796;6.772;2022-09-30T06:15:41;3.73;;;3.27;;
1837;SDS011;918;50.796;6.772;2022-09-30T06:18:06;4.27;;;3.93;;
1837;SDS011;918;50.796;6.772;2022-09-30T06:20:32;4.73;;;3.70;;
1837;SDS011;918;50.796;6.772;2022-09-30T06:22:58;4.80;;;4.27;;
1837;SDS011;918;50.796;6.772;2022-09-30T06:25:24;4.90;;;4.10;;
1837;SDS011;918;50.796;6.772;2022-09-30T06:27:49;6.73;;;4.03;;
1837;SDS011;918;50.796;6.772;2022-09-30T06:30:14;4.20;;;3.90;;
1837;SDS011;918;50.796;6.772;2022-09-30T06:32:40;3.87;;;3.57;;
1837;SDS011;918;50.796;6.772;2022-09-30T06:35:06;4.47;;;4.07;;
1837;SDS011;918;50.796;6.772;2022-09-30T06:37:32;3.73;;;3.43;;
1837;SDS011;918;50.796;6.772;2022-09-30T06:39:58;4.47;;;4.07;;
1837;SDS011;918;50.796;6.772;2022-09-30T06:42:25;4.00;;;3.70;;
1837;SDS011;918;50.796;6.772;2022-09-30T06:44:50;4.60;;;3.80;;
1837;SDS011;918;50.796;6.772;2022-09-30T06:47:15;5.47;;;4.97;;
1837;SDS011;918;50.796;6.772;2022-09-30T06:49:40;4.63;;;4.33;;
1837;SDS011;918;50.796;6.772;2022-09-30T06:52:07;4.60;;;4.20;;
1837;SDS011;918;50.796;6.772;2022-09-30T06:54:33;5.50;;;5.00;;
1837;SDS011;918;50.796;6.772;2022-09-30T06:56:58;4.90;;;4.60;;
1837;SDS011;918;50.796;6.772;2022-09-30T06:59:24;4.50;;;4.03;;
1837;SDS011;918;50.796;6.772;2022-09-30T07:01:49;4.47;;;4.10;;
1837;SDS011;918;50.796;6.772;2022-09-30T07:04:14;5.33;;;4.83;;
1837;SDS011;918;50.796;6.772;2022-09-30T07:06:40;4.97;;;4.67;;
1837;SDS011;918;50.796;6.772;2022-09-30T07:09:06;6.30;;;5.90;;
1837;SDS011;918;50.796;6.772;2022-09-30T07:11:31;6.40;;;5.67;;
1837;SDS011;918;50.796;6.772;2022-09-30T07:13:56;5.50;;;5.10;;
1837;SDS011;918;50.796;6.772;2022-09-30T07:16:22;5.33;;;4.83;;
1837;SDS011;918;50.796;6.772;2022-09-30T07:18:49;5.60;;;5.20;;
1837;SDS011;918;50.796;6.772;2022-09-30T07:21:15;5.80;;;5.10;;
1837;SDS011;918;50.796;6.772;2022-09-30T07:23:41;5.77;;;5.33;;
1837;SDS011;918;50.796;6.772;2022-09-30T07:26:11;5.83;;;5.30;;
1837;SDS011;918;50.796;6.772;2022-09-30T07:28:40;5.50;;;5.10;;
1837;SDS011;918;50.796;6.772;2022-09-30T07:31:09;6.40;;;5.80;;
1837;SDS011;918;50.796;6.772;2022-09-30T07:33:39;5.90;;;5.33;;
1837;SDS011;918;50.796;6.772;2022-09-30T07:36:05;6.37;;;5.70;;
1837;SDS011;918;50.796;6.772;2022-09-30T07:38:32;6.00;;;5.50;;
1837;SDS011;918;50.796;6.772;2022-09-30T07:41:02;6.50;;;5.93;;
1837;SDS011;918;50.796;6.772;2022-09-30T07:43:33;6.43;;;5.93;;
1837;SDS011;918;50.796;6.772;2022-09-30T07:46:03;5.90;;;5.50;;
1837;SDS011;918;50.796;6.772;2022-09-30T07:48:29;6.13;;;5.73;;
1837;SDS011;918;50.796;6.772;2022-09-30T07:51:07;6.70;;;6.03;;
1837;SDS011;918;50.796;6.772;2022-09-30T07:53:34;5.70;;;5.20;;
1837;SDS011;918;50.796;6.772;2022-09-30T07:56:03;5.90;;;5.30;;
1837;SDS011;918;50.796;6.772;2022-09-30T07:58:29;6.30;;;5.80;;
1837;SDS011;918;50.796;6.772;2022-09-30T08:00:54;6.70;;;6.20;;
1837;SDS011;918;50.796;6.772;2022-09-30T08:03:19;6.33;;;5.83;;
1837;SDS011;918;50.796;6.772;2022-09-30T08:05:45;5.83;;;5.33;;
1837;SDS011;918;50.796;6.772;2022-09-30T08:08:12;5.77;;;5.20;;
1837;SDS011;918;50.796;6.772;2022-09-30T08:10:39;6.30;;;5.73;;
1837;SDS011;918;50.796;6.772;2022-09-30T08:13:04;5.77;;;5.27;;
1837;SDS011;918;50.796;6.772;2022-09-30T08:15:30;6.73;;;6.23;;
1837;SDS011;918;50.796;6.772;2022-09-30T08:17:55;8.17;;;7.47;;
1837;SDS011;918;50.796;6.772;2022-09-30T08:20:20;7.07;;;6.40;;
1837;SDS011;918;50.796;6.772;2022-09-30T08:22:46;6.90;;;6.40;;
1837;SDS011;918;50.796;6.772;2022-09-30T08:25:11;5.93;;;5.53;;
1837;SDS011;918;50.796;6.772;2022-09-30T08:27:36;7.00;;;6.40;;
1837;SDS011;918;50.796;6.772;2022-09-30T08:30:02;7.13;;;6.60;;
1837;SDS011;918;50.796;6.772;2022-09-30T08:32:28;7.20;;;6.60;;
1837;SDS011;918;50.796;6.772;2022-09-30T08:34:54;7.23;;;6.10;;
1837;SDS011;918;50.796;6.772;2022-09-30T08:37:19;6.83;;;6.30;;
1837;SDS011;918;50.796;6.772;2022-09-30T08:39:45;6.37;;;5.87;;
1837;SDS011;918;50.796;6.772;2022-09-30T08:44:44;7.07;;;6.43;;
1837;SDS011;918;50.796;6.772;2022-09-30T08:50:22;7.90;;;7.10;;
1837;SDS011;918;50.796;6.772;2022-09-30T08:52:59;7.10;;;6.03;;
1837;SDS011;918;50.796;6.772;2022-09-30T08:55:42;7.50;;;6.80;;
1837;SDS011;918;50.796;6.772;2022-09-30T08:58:21;6.37;;;5.73;;
1837;SDS011;918;50.796;6.772;2022-09-30T09:00:53;6.00;;;5.60;;
1837;SDS011;918;50.796;6.772;2022-09-30T09:03:24;6.80;;;6.30;;
1837;SDS011;918;50.796;6.772;2022-09-30T09:06:07;5.87;;;5.40;;
1837;SDS011;918;50.796;6.772;2022-09-30T09:19:36;8.00;;;7.10;;
1837;SDS011;918;50.796;6.772;2022-09-30T09:22:03;8.60;;;6.33;;
1837;SDS011;918;50.796;6.772;2022-09-30T09:24:40;6.17;;;5.67;;
1837;SDS011;918;50.796;6.772;2022-09-30T09:27:15;7.40;;;6.73;;
1837;SDS011;918;50.796;6.772;2022-09-30T09:29:52;6.50;;;6.00;;
1837;SDS011;918;50.796;6.772;2022-09-30T09:32:25;6.20;;;5.63;;
1837;SDS011;918;50.796;6.772;2022-09-30T09:34:51;6.50;;;6.00;;
1837;SDS011;918;50.796;6.772;2022-09-30T09:37:24;7.43;;;6.73;;
1837;SDS011;918;50.796;6.772;2022-09-30T09:40:19;7.57;;;6.67;;
1837;SDS011;918;50.796;6.772;2022-09-30T09:45:53;7.60;;;6.63;;
1837;SDS011;918;50.796;6.772;2022-09-30T09:48:24;7.57;;;6.73;;
1837;SDS011;918;50.796;6.772;2022-09-30T09:56:19;6.10;;;5.60;;
1837;SDS011;918;50.796;6.772;2022-09-30T10:01:49;5.10;;;4.70;;
1837;SDS011;918;50.796;6.772;2022-09-30T10:04:17;5.73;;;5.23;;
1837;SDS011;918;50.796;6.772;2022-09-30T10:11:49;5.00;;;4.70;;
1837;SDS011;918;50.796;6.772;2022-09-30T10:14:19;6.03;;;5.43;;
1837;SDS011;918;50.796;6.772;2022-09-30T10:16:46;5.10;;;4.70;;
1837;SDS011;918;50.796;6.772;2022-09-30T10:19:19;4.80;;;4.10;;
1837;SDS011;918;50.796;6.772;2022-09-30T10:21:47;5.23;;;4.83;;
1837;SDS011;918;50.796;6.772;2022-09-30T10:24:28;9.13;;;4.30;;
1837;SDS011;918;50.796;6.772;2022-09-30T10:26:54;5.90;;;4.00;;
1837;SDS011;918;50.796;6.772;2022-09-30T10:29:33;4.30;;;4.00;;
1837;SDS011;918;50.796;6.772;2022-09-30T10:32:05;4.23;;;3.80;;
1837;SDS011;918;50.796;6.772;2022-09-30T10:34:38;6.30;;;3.30;;
1837;SDS011;918;50.796;6.772;2022-09-30T10:37:08;3.83;;;3.53;;
1837;SDS011;918;50.796;6.772;2022-09-30T10:39:38;5.10;;;4.70;;
1837;SDS011;918;50.796;6.772;2022-09-30T10:44:46;3.90;;;3.50;;
1837;SDS011;918;50.796;6.772;2022-09-30T10:47:14;3.20;;;2.90;;
1837;SDS011;918;50.796;6.772;2022-09-30T10:49:47;3.13;;;2.50;;
1837;SDS011;918;50.796;6.772;2022-09-30T10:52:19;3.17;;;2.87;;
1837;SDS011;918;50.796;6.772;2022-09-30T10:54:49;3.27;;;3.07;;
1837;SDS011;918;50.796;6.772;2022-09-30T11:00:17;2.73;;;2.30;;
1837;SDS011;918;50.796;6.772;2022-09-30T11:05:30;2.80;;;2.60;;
1837;SDS011;918;50.796;6.772;2022-09-30T11:08:02;2.80;;;2.60;;
1837;SDS011;918;50.796;6.772;2022-09-30T11:26:43;2.30;;;2.20;;
1837;SDS011;918;50.796;6.772;2022-09-30T11:35:15;3.60;;;2.00;;
1837;SDS011;918;50.796;6.772;2022-09-30T11:37:55;1.90;;;1.80;;
1837;SDS011;918;50.796;6.772;2022-09-30T11:40:37;2.03;;;1.90;;
1837;SDS011;918;50.796;6.772;2022-09-30T11:54:09;2.47;;;2.27;;
1837;SDS011;918;50.796;6.772;2022-09-30T11:59:39;4.53;;;2.13;;
1837;SDS011;918;50.796;6.772;2022-09-30T12:04:54;1.80;;;1.70;;
1837;SDS011;918;50.796;6.772;2022-09-30T12:07:24;3.27;;;1.87;;
1837;SDS011;918;50.796;6.772;2022-09-30T12:10:02;1.37;;;1.30;;
1837;SDS011;918;50.796;6.772;2022-09-30T12:12:32;1.90;;;1.80;;
1837;SDS011;918;50.796;6.772;2022-09-30T12:15:01;2.70;;;2.00;;
1837;SDS011;918;50.796;6.772;2022-09-30T12:17:33;2.40;;;1.93;;
1837;SDS011;918;50.796;6.772;2022-09-30T12:20:48;2.63;;;1.93;;
1837;SDS011;918;50.796;6.772;2022-09-30T12:22:50;3.67;;;1.63;;
1837;SDS011;918;50.796;6.772;2022-09-30T12:25:21;2.07;;;1.60;;
1837;SDS011;918;50.796;6.772;2022-09-30T12:31:46;3.50;;;1.90;;
1837;SDS011;918;50.796;6.772;2022-09-30T12:37:15;1.80;;;1.67;;
1837;SDS011;918;50.796;6.772;2022-09-30T12:40:19;2.23;;;1.63;;
1837;SDS011;918;50.796;6.772;2022-09-30T12:45:31;2.60;;;1.20;;
1837;SDS011;918;50.796;6.772;2022-09-30T12:48:20;1.90;;;1.53;;
1837;SDS011;918;50.796;6.772;2022-09-30T12:50:49;1.83;;;1.50;;
1837;SDS011;918;50.796;6.772;2022-09-30T12:53:19;1.60;;;1.50;;
1837;SDS011;918;50.796;6.772;2022-09-30T12:55:48;2.63;;;1.60;;
1837;SDS011;918;50.796;6.772;2022-09-30T12:58:56;1.70;;;1.60;;
1837;SDS011;918;50.796;6.772;2022-09-30T13:01:04;1.50;;;1.10;;
1837;SDS011;918;50.796;6.772;2022-09-30T13:03:48;1.90;;;1.80;;
1837;SDS011;918;50.796;6.772;2022-09-30T13:06:14;2.97;;;2.20;;
1837;SDS011;918;50.796;6.772;2022-09-30T13:11:31;2.00;;;1.70;;
1837;SDS011;918;50.796;6.772;2022-09-30T13:14:02;1.60;;;1.50;;
1837;SDS011;918;50.796;6.772;2022-09-30T13:19:32;1.90;;;1.70;;
1837;SDS011;918;50.796;6.772;2022-09-30T13:27:38;1.93;;;1.83;;
1837;SDS011;918;50.796;6.772;2022-09-30T13:32:41;1.70;;;1.60;;
1837;SDS011;918;50.796;6.772;2022-09-30T13:46:28;2.07;;;1.87;;
1837;SDS011;918;50.796;6.772;2022-09-30T13:48:57;2.40;;;1.73;;
1837;SDS011;918;50.796;6.772;2022-09-30T13:51:27;3.30;;;2.00;;
1837;SDS011;918;50.796;6.772;2022-09-30T13:53:54;1.93;;;1.77;;
1837;SDS011;918;50.796;6.772;2022-09-30T13:56:26;1.70;;;1.60;;
1837;SDS011;918;50.796;6.772;2022-09-30T14:01:47;2.37;;;2.17;;
1837;SDS011;918;50.796;6.772;2022-09-30T14:07:23;2.20;;;2.10;;
1837;SDS011;918;50.796;6.772;2022-09-30T14:24:13;2.43;;;2.23;;
1837;SDS011;918;50.796;6.772;2022-09-30T14:29:40;2.00;;;1.90;;
1837;SDS011;918;50.796;6.772;2022-09-30T14:32:19;2.73;;;1.90;;
1837;SDS011;918;50.796;6.772;2022-09-30T14:34:50;2.30;;;2.13;;
1837;SDS011;918;50.796;6.772;2022-09-30T14:37:21;1.60;;;1.50;;
1837;SDS011;918;50.796;6.772;2022-09-30T14:39:49;1.40;;;1.27;;
1837;SDS011;918;50.796;6.772;2022-09-30T14:42:18;1.80;;;1.70;;
1837;SDS011;918;50.796;6.772;2022-09-30T14:44:55;5.70;;;1.83;;
1837;SDS011;918;50.796;6.772;2022-09-30T14:47:28;1.57;;;1.23;;
1837;SDS011;918;50.796;6.772;2022-09-30T14:49:56;2.23;;;2.03;;
1837;SDS011;918;50.796;6.772;2022-09-30T14:52:41;1.97;;;1.87;;
1837;SDS011;918;50.796;6.772;2022-09-30T14:58:21;2.70;;;1.80;;
1837;SDS011;918;50.796;6.772;2022-09-30T15:03:23;1.77;;;1.67;;
1837;SDS011;918;50.796;6.772;2022-09-30T15:05:50;1.77;;;1.63;;
1837;SDS011;918;50.796;6.772;2022-09-30T15:08:17;5.10;;;1.80;;
1837;SDS011;918;50.796;6.772;2022-09-30T15:10:51;1.60;;;1.50;;
1837;SDS011;918;50.796;6.772;2022-09-30T15:13:20;1.20;;;1.10;;
1837;SDS011;918;50.796;6.772;2022-09-30T15:15:47;1.50;;;1.40;;
1837;SDS011;918;50.796;6.772;2022-09-30T15:18:32;1.40;;;1.20;;
1837;SDS011;918;50.796;6.772;2022-09-30T15:21:12;1.40;;;1.30;;
1837;SDS011;918;50.796;6.772;2022-09-30T15:23:44;1.77;;;1.50;;
1837;SDS011;918;50.796;6.772;2022-09-30T15:26:15;1.83;;;1.70;;
1837;SDS011;918;50.796;6.772;2022-09-30T15:28:40;1.60;;;1.20;;
1837;SDS011;918;50.796;6.772;2022-09-30T15:31:06;3.23;;;1.30;;
1837;SDS011;918;50.796;6.772;2022-09-30T15:33:38;1.50;;;1.40;;
1837;SDS011;918;50.796;6.772;2022-09-30T15:36:04;3.50;;;1.93;;
1837;SDS011;918;50.796;6.772;2022-09-30T15:38:38;1.63;;;1.53;;
1837;SDS011;918;50.796;6.772;2022-09-30T15:41:07;1.57;;;1.47;;
1837;SDS011;918;50.796;6.772;2022-09-30T15:43:35;1.73;;;1.57;;
1837;SDS011;918;50.796;6.772;2022-09-30T15:46:23;2.20;;;2.10;;
1837;SDS011;918;50.796;6.772;2022-09-30T15:48:59;1.00;;;1.00;;
1837;SDS011;918;50.796;6.772;2022-09-30T15:51:46;3.37;;;1.80;;
1837;SDS011;918;50.796;6.772;2022-09-30T15:56:39;1.40;;;1.30;;
1837;SDS011;918;50.796;6.772;2022-09-30T15:59:05;2.60;;;1.70;;
1837;SDS011;918;50.796;6.772;2022-09-30T16:04:04;1.47;;;1.37;;
1837;SDS011;918;50.796;6.772;2022-09-30T16:09:05;2.00;;;1.60;;
1837;SDS011;918;50.796;6.772;2022-09-30T16:11:42;1.67;;;1.50;;
1837;SDS011;918;50.796;6.772;2022-09-30T16:14:28;2.20;;;1.37;;
1837;SDS011;918;50.796;6.772;2022-09-30T16:16:56;2.03;;;1.80;;
1837;SDS011;918;50.796;6.772;2022-09-30T16:19:23;4.17;;;1.93;;
1837;SDS011;918;50.796;6.772;2022-09-30T16:21:50;2.63;;;1.97;;
1837;SDS011;918;50.796;6.772;2022-09-30T16:26:54;2.90;;;1.83;;
1837;SDS011;918;50.796;6.772;2022-09-30T16:29:21;1.70;;;1.47;;
1837;SDS011;918;50.796;6.772;2022-09-30T16:31:49;1.80;;;1.53;;
1837;SDS011;918;50.796;6.772;2022-09-30T16:34:17;2.17;;;2.07;;
1837;SDS011;918;50.796;6.772;2022-09-30T16:36:43;2.13;;;1.90;;
1837;SDS011;918;50.796;6.772;2022-09-30T16:39:09;4.03;;;2.00;;
1837;SDS011;918;50.796;6.772;2022-09-30T16:41:36;2.37;;;2.10;;
1837;SDS011;918;50.796;6.772;2022-09-30T16:44:02;2.23;;;2.03;;
1837;SDS011;918;50.796;6.772;2022-09-30T16:46:27;1.93;;;1.83;;
1837;SDS011;918;50.796;6.772;2022-09-30T16:48:52;2.03;;;1.93;;
1837;SDS011;918;50.796;6.772;2022-09-30T16:51:18;2.47;;;2.37;;
1837;SDS011;918;50.796;6.772;2022-09-30T16:53:43;2.10;;;1.93;;
1837;SDS011;918;50.796;6.772;2022-09-30T16:56:15;2.20;;;2.00;;
1837;SDS011;918;50.796;6.772;2022-09-30T16:58:42;3.60;;;2.47;;
1837;SDS011;918;50.796;6.772;2022-09-30T17:01:26;2.33;;;2.13;;
1837;SDS011;918;50.796;6.772;2022-09-30T17:03:52;2.50;;;2.30;;
1837;SDS011;918;50.796;6.772;2022-09-30T17:06:20;6.78;;;3.63;;
1837;SDS011;918;50.796;6.772;2022-09-30T17:08:49;12.67;;;6.43;;
1837;SDS011;918;50.796;6.772;2022-09-30T17:11:16;9.70;;;5.50;;
1837;SDS011;918;50.796;6.772;2022-09-30T17:13:43;7.90;;;5.10;;
1837;SDS011;918;50.796;6.772;2022-09-30T17:16:08;10.37;;;7.20;;
1837;SDS011;918;50.796;6.772;2022-09-30T17:18:33;17.63;;;10.27;;
1837;SDS011;918;50.796;6.772;2022-09-30T17:20:58;28.93;;;13.90;;
1837;SDS011;918;50.796;6.772;2022-09-30T17:23:25;22.20;;;8.60;;
1837;SDS011;918;50.796;6.772;2022-09-30T17:25:50;6.10;;;3.70;;
1837;SDS011;918;50.796;6.772;2022-09-30T17:28:16;13.00;;;7.93;;
1837;SDS011;918;50.796;6.772;2022-09-30T17:30:44;35.57;;;8.03;;
1837;SDS011;918;50.796;6.772;2022-09-30T17:33:12;6.40;;;3.93;;
1837;SDS011;918;50.796;6.772;2022-09-30T17:35:37;4.50;;;4.20;;
1837;SDS011;918;50.796;6.772;2022-09-30T17:38:05;2.90;;;2.70;;
1837;SDS011;918;50.796;6.772;2022-09-30T17:40:33;2.77;;;2.47;;
1837;SDS011;918;50.796;6.772;2022-09-30T17:43:17;2.83;;;2.63;;
1837;SDS011;918;50.796;6.772;2022-09-30T17:45:43;2.77;;;2.57;;
1837;SDS011;918;50.796;6.772;2022-09-30T17:48:10;3.03;;;2.83;;
1837;SDS011;918;50.796;6.772;2022-09-30T17:50:37;3.00;;;2.80;;
1837;SDS011;918;50.796;6.772;2022-09-30T17:53:08;2.67;;;2.47;;
1837;SDS011;918;50.796;6.772;2022-09-30T17:55:33;3.20;;;3.00;;
1837;SDS011;918;50.796;6.772;2022-09-30T17:57:59;4.17;;;2.60;;
1837;SDS011;918;50.796;6.772;2022-09-30T18:00:27;2.43;;;2.13;;
1837;SDS011;918;50.796;6.772;2022-09-30T18:02:52;4.43;;;2.93;;
1837;SDS011;918;50.796;6.772;2022-09-30T18:05:18;3.07;;;2.87;;
1837;SDS011;918;50.796;6.772;2022-09-30T18:07:44;5.43;;;2.80;;
1837;SDS011;918;50.796;6.772;2022-09-30T18:10:09;2.53;;;2.33;;
1837;SDS011;918;50.796;6.772;2022-09-30T18:12:35;2.60;;;2.50;;
1837;SDS011;918;50.796;6.772;2022-09-30T18:15:00;3.43;;;3.20;;
1837;SDS011;918;50.796;6.772;2022-09-30T18:17:26;3.80;;;3.53;;
1837;SDS011;918;50.796;6.772;2022-09-30T18:19:51;5.00;;;4.60;;
1837;SDS011;918;50.796;6.772;2022-09-30T18:22:16;4.27;;;3.67;;
1837;SDS011;918;50.796;6.772;2022-09-30T18:24:41;3.73;;;3.37;;
1837;SDS011;918;50.796;6.772;2022-09-30T18:27:25;3.07;;;2.87;;
1837;SDS011;918;50.796;6.772;2022-09-30T18:29:52;3.50;;;3.20;;
1837;SDS011;918;50.796;6.772;2022-09-30T18:32:17;3.30;;;3.10;;
1837;SDS011;918;50.796;6.772;2022-09-30T18:34:42;3.10;;;2.90;;
1837;SDS011;918;50.796;6.772;2022-09-30T18:37:08;3.40;;;3.13;;
1837;SDS011;918;50.796;6.772;2022-09-30T18:39:33;3.77;;;3.40;;
1837;SDS011;918;50.796;6.772;2022-09-30T18:42:01;3.30;;;3.10;;
1837;SDS011;918;50.796;6.772;2022-09-30T18:44:27;3.37;;;3.10;;
1837;SDS011;918;50.796;6.772;2022-09-30T18:46:53;4.30;;;3.90;;
1837;SDS011;918;50.796;6.772;2022-09-30T18:49:19;3.97;;;3.50;;
1837;SDS011;918;50.796;6.772;2022-09-30T18:51:46;4.90;;;4.50;;
1837;SDS011;918;50.796;6.772;2022-09-30T18:54:12;4.83;;;4.43;;
1837;SDS011;918;50.796;6.772;2022-09-30T18:56:39;4.50;;;4.20;;